Hauptseite
METAR-TAF:

METAR-TAF

Flughäfen :

Flughafen Lahr

Lahr, Deutschland

Breite: 48-22-09N, Länge: 007-49-40E, Höhe: 156 m

Beobachtung

Neuester Wetterbericht von vor 1 Stunde und 27 Minuten, um 17:50 UTC
Wind 4 kt aus Ost/Südost
Temperatur 26°C
Luftfeuchtigkeit 51%
Luftdruck 1019 hPa
Sichtweite 10 km oder mehr
keine Wolken unter 1500 m und keine Kumulonimbus oder Gewitterwolken

METAR: EDTL 191750Z 12004KT CAVOK 26/15 Q1019

Zeit: 21:17 (19:17 UTC)

Prognose

Neuester Wetterbericht von vor 2 Stunden und 17 Minuten, um 17:00 UTC
Gültige Prognose vom 19 um 18 UTC bis 19 um 24 UTC
Wind 6 kt aus Süd/Südwest
Sichtweite 10 km oder mehr
keine Wolken unter 1500 m und keine Kumulonimbus oder Gewitterwolken
Übergehend zu
vom 19 um 18 UTC bis 19 um 20 UTC
Wind 3 kt aus unterschiedlichen Richtungen

TAF: EDTL 191700Z 1918/1924 20006KT CAVOK BECMG 1918/1920 VRB03KT

Wetterbeobachtungen und Prognosen von mehr als 4000 Flughäfen (METAR und TAF Bericht).

Die verfügbaren Stationen werden durch gelbe und rote Markierungen auf der Karte dargestellt.

Führen Sie die Maus auf sie, um den Namen der Station zu sehen.

Darauf klicken, um die Beobachtung von Wetterbeobachtungen und Prognosen zu sehen.

Um die Karte zu ändern : klicken Sie auf den grünen Tasten mit einem schwarzen Kreuz Zum Vergrößern, auf den grünen Button mit einem Gedankenstrich zu verkleinern, oder auf die grünen Pfeile für benachbarte Karten.


METAR-TAF: